Time;durP1;ratioP1;P1;durP2;ratioP2;P2;SDS_P1;SDS_P2;PMS_P1;PMS_P2;Temp;Humidity;BMP_temperature;BMP_pressure;BME280_temperature;BME280_humidity;BME280_pressure;Samples;Min_cycle;Max_cycle;Signal;HPM_P1;HPM_P2
2024/02/04 00:02:17;;;;;;;;;;;9.70;99.90;;;;;;5019238;28;20033;-73
2024/02/04 00:04:43;;;;;;;10.55;3.45;;;9.60;99.90;;;;;;5022154;28;20389;-73
2024/02/04 00:07:09;;;;;;;9.73;3.63;;;9.60;99.90;;;;;;5018110;28;20111;-73
2024/02/04 00:09:34;;;;;;;12.27;4.25;;;9.60;99.90;;;;;;5015852;28;20129;-73
2024/02/04 00:12:03;;;;;;;9.00;3.28;;;9.60;99.90;;;;;;5021241;28;20690;-73
2024/02/04 00:14:29;;;;;;;10.25;3.72;;;9.60;99.90;;;;;;5015146;28;20099;-73
2024/02/04 00:16:54;;;;;;;10.40;3.83;;;9.50;99.90;;;;;;5017923;28;20037;-74
2024/02/04 00:19:20;;;;;;;14.30;4.30;;;9.50;99.90;;;;;;5019837;28;20041;-73
2024/02/04 00:21:45;;;;;;;6.88;3.58;;;9.50;99.90;;;;;;5012350;28;20028;-73
2024/02/04 00:24:11;;;;;;;11.20;3.80;;;9.50;99.90;;;;;;5016797;28;20562;-73
2024/02/04 00:26:36;;;;;;;12.30;3.67;;;9.50;99.90;;;;;;4996224;28;20159;-73
2024/02/04 00:29:02;;;;;;;11.63;4.70;;;9.50;99.90;;;;;;5014068;28;20409;-73
2024/02/04 00:31:28;;;;;;;16.42;4.43;;;9.50;99.90;;;;;;5017150;28;20491;-73
2024/02/04 00:33:54;;;;;;;9.68;3.80;;;9.50;99.90;;;;;;5012704;28;20030;-73
2024/02/04 00:36:21;;;;;;;7.10;3.38;;;9.50;99.90;;;;;;5017071;28;20028;-73
2024/02/04 00:38:49;;;;;;;7.13;3.50;;;9.40;99.90;;;;;;5016655;28;20544;-73
2024/02/04 00:41:15;;;;;;;;;;;9.40;99.90;;;;;;5016914;28;20317;-73
2024/02/04 00:43:40;;;;;;;7.60;4.28;;;9.50;99.90;;;;;;5018343;28;19921;-73
2024/02/04 00:46:07;;;;;;;12.07;4.93;;;9.40;99.90;;;;;;5019227;28;20038;-73
2024/02/04 00:48:32;;;;;;;9.00;4.05;;;9.50;99.90;;;;;;5013891;28;20056;-73
2024/02/04 00:51:00;;;;;;;9.63;4.93;;;9.40;99.90;;;;;;5015724;28;20076;-73
2024/02/04 00:53:28;;;;;;;;;;;9.40;99.90;;;;;;5022583;28;20451;-72
2024/02/04 00:55:53;;;;;;;12.80;4.13;;;9.40;99.90;;;;;;5015933;28;20367;-73
2024/02/04 00:58:21;;;;;;;13.95;4.80;;;9.40;99.90;;;;;;5015881;28;20044;-73
2024/02/04 01:00:47;;;;;;;8.65;4.70;;;9.30;99.90;;;;;;4999737;28;20030;-74
2024/02/04 01:03:12;;;;;;;6.47;4.60;;;9.30;99.90;;;;;;5018496;28;20025;-73
2024/02/04 01:05:43;;;;;;;13.30;5.10;;;9.30;99.90;;;;;;5016955;28;20124;-73
2024/02/04 01:08:08;;;;;;;9.70;4.95;;;9.30;99.90;;;;;;5018985;28;20065;-73
2024/02/04 01:10:34;;;;;;;15.65;5.60;;;9.20;99.90;;;;;;5019571;28;20268;-74
2024/02/04 01:12:59;;;;;;;14.27;5.25;;;9.20;99.90;;;;;;5019264;28;20033;-73
2024/02/04 01:15:26;;;;;;;14.88;5.63;;;9.20;99.90;;;;;;5020602;28;20478;-73
2024/02/04 01:17:52;;;;;;;9.82;4.80;;;9.20;99.90;;;;;;5014332;28;20514;-73
2024/02/04 01:20:21;;;;;;;11.90;4.88;;;9.20;99.90;;;;;;5013990;28;20034;-73
2024/02/04 01:22:46;;;;;;;9.18;4.57;;;9.20;99.90;;;;;;5016370;28;20031;-74
2024/02/04 01:25:12;;;;;;;10.10;5.15;;;9.20;99.90;;;;;;5018615;28;20026;-73
2024/02/04 01:27:38;;;;;;;13.43;4.20;;;9.20;99.90;;;;;;5018699;28;20467;-73
2024/02/04 01:30:05;;;;;;;11.70;4.93;;;9.20;99.90;;;;;;5015557;28;20034;-73
2024/02/04 01:32:30;;;;;;;14.95;5.78;;;9.10;99.90;;;;;;5004737;28;20034;-73
2024/02/04 01:34:59;;;;;;;9.15;4.43;;;9.10;99.90;;;;;;5008998;28;20431;-73
2024/02/04 01:37:24;;;;;;;13.60;4.60;;;9.10;99.90;;;;;;5010492;28;20025;-73
2024/02/04 01:39:50;;;;;;;15.13;4.63;;;9.10;99.90;;;;;;5017873;28;20487;-74
2024/02/04 01:42:15;;;;;;;10.38;5.40;;;9.10;99.90;;;;;;5021553;28;20031;-73
2024/02/04 01:44:43;;;;;;;11.15;4.70;;;9.10;99.90;;;;;;5012633;28;20026;-74
2024/02/04 01:47:11;;;;;;;10.68;5.05;;;9.20;99.90;;;;;;5018255;28;20033;-73
2024/02/04 01:49:37;;;;;;;12.23;5.15;;;9.20;99.90;;;;;;5013578;28;20528;-74
2024/02/04 01:52:04;;;;;;;12.77;5.25;;;9.20;99.90;;;;;;5013665;28;20542;-73
2024/02/04 01:54:31;;;;;;;9.60;5.53;;;9.20;99.90;;;;;;5019887;28;20022;-73
2024/02/04 01:56:58;;;;;;;22.05;6.38;;;9.20;99.90;;;;;;5026396;28;20512;-73
2024/02/04 01:59:30;;;;;;;13.32;5.10;;;9.20;99.90;;;;;;5017741;28;20068;-73
2024/02/04 02:02:00;;;;;;;13.38;6.07;;;9.20;99.90;;;;;;5014077;28;20030;-73
2024/02/04 02:04:25;;;;;;;13.18;5.97;;;9.20;99.90;;;;;;5019751;28;20163;-73
2024/02/04 02:06:55;;;;;;;12.05;5.95;;;9.20;99.90;;;;;;5015495;28;20037;-73
2024/02/04 02:09:22;;;;;;;14.70;6.75;;;9.30;99.90;;;;;;5020067;28;20029;-73
2024/02/04 02:12:07;;;;;;;16.75;6.78;;;9.30;99.90;;;;;;5022986;28;20056;-73
2024/02/04 02:14:38;;;;;;;20.58;7.65;;;9.30;99.90;;;;;;5017144;28;20567;-73
2024/02/04 02:17:17;;;;;;;17.10;8.20;;;9.30;99.90;;;;;;5023578;28;20034;-73
2024/02/04 02:20:05;;;;;;;12.60;7.47;;;9.30;99.90;;;;;;5019995;28;20030;-73
2024/02/04 02:23:00;;;;;;;23.02;7.70;;;9.40;99.90;;;;;;5020485;28;20041;-73
2024/02/04 02:25:26;;;;;;;18.13;7.82;;;9.40;99.90;;;;;;5022937;28;20117;-73
2024/02/04 02:27:54;;;;;;;24.80;8.13;;;9.40;99.90;;;;;;5015595;28;20068;-73
2024/02/04 02:30:20;;;;;;;;;;;9.40;99.90;;;;;;5022643;28;20158;-73
2024/02/04 02:32:49;;;;;;;20.70;8.18;;;9.40;99.90;;;;;;5021068;28;19917;-74
2024/02/04 02:35:19;;;;;;;22.48;7.68;;;9.40;99.90;;;;;;5021168;28;20366;-74
2024/02/04 02:38:02;;;;;;;18.13;8.75;;;9.50;99.90;;;;;;5013389;28;20045;-73
2024/02/04 02:40:38;;;;;;;17.88;8.55;;;9.50;99.90;;;;;;5020899;28;20426;-73
2024/02/04 02:43:06;;;;;;;23.35;8.88;;;9.50;99.90;;;;;;5015009;28;20044;-73
2024/02/04 02:45:32;;;;;;;16.38;8.02;;;9.50;99.90;;;;;;5020880;28;20026;-73
2024/02/04 02:47:59;;;;;;;18.65;8.05;;;9.50;99.90;;;;;;5022699;28;20524;-73
2024/02/04 02:50:24;;;;;;;20.02;8.13;;;9.60;99.90;;;;;;5018868;28;20476;-73
2024/02/04 02:52:50;;;;;;;25.27;8.43;;;9.60;99.90;;;;;;5018493;28;20065;-73
2024/02/04 02:55:18;;;;;;;21.85;8.95;;;9.60;99.90;;;;;;5019046;28;20030;-73
2024/02/04 02:57:43;;;;;;;23.20;7.57;;;9.60;99.90;;;;;;5005508;28;20079;-73
2024/02/04 03:00:09;;;;;;;17.88;7.43;;;9.60;99.90;;;;;;5019521;28;20225;-74
2024/02/04 03:02:35;;;;;;;18.75;7.57;;;9.60;99.90;;;;;;5021406;28;20040;-73
2024/02/04 03:05:00;;;;;;;15.80;7.30;;;9.60;99.90;;;;;;5018319;28;20478;-73
2024/02/04 03:07:29;;;;;;;17.73;7.65;;;9.60;99.90;;;;;;5015833;28;20038;-74
2024/02/04 03:09:54;;;;;;;;;;;9.60;99.90;;;;;;5020086;28;20037;-73
2024/02/04 03:12:20;;;;;;;17.02;6.22;;;9.60;99.90;;;;;;5034747;23;19929;-73
2024/02/04 03:14:45;;;;;;;14.30;7.50;;;9.60;99.90;;;;;;5042398;28;20483;-73
2024/02/04 03:17:12;;;;;;;18.77;7.35;;;9.60;99.90;;;;;;5043885;28;20206;-73
2024/02/04 03:19:37;;;;;;;15.60;6.95;;;9.60;99.90;;;;;;5024412;28;20129;-73
2024/02/04 03:22:03;;;;;;;15.10;7.15;;;9.60;99.90;;;;;;5042071;28;20115;-73
2024/02/04 03:24:29;;;;;;;18.45;7.18;;;9.60;99.90;;;;;;5042258;28;20036;-73
2024/02/04 03:26:54;;;;;;;15.07;7.10;;;9.50;99.90;;;;;;5039691;28;20052;-73
2024/02/04 03:29:22;;;;;;;22.45;8.00;;;9.50;99.90;;;;;;5044524;28;20037;-73
2024/02/04 03:31:50;;;;;;;15.18;7.65;;;9.50;99.90;;;;;;5025930;28;20117;-73
2024/02/04 03:34:16;;;;;;;19.40;8.43;;;9.60;99.90;;;;;;5050502;28;20502;-73
2024/02/04 03:36:41;;;;;;;15.45;8.07;;;9.50;99.90;;;;;;5045931;28;20116;-73
2024/02/04 03:39:07;;;;;;;16.48;7.80;;;9.50;99.90;;;;;;5041604;28;20565;-73
2024/02/04 03:41:35;;;;;;;20.40;7.70;;;9.60;99.90;;;;;;5047089;28;20382;-73
2024/02/04 03:44:00;;;;;;;14.52;7.30;;;9.60;99.90;;;;;;5043753;28;20033;-73
2024/02/04 03:46:26;;;;;;;21.75;9.13;;;9.50;99.90;;;;;;5043945;28;20383;-73
2024/02/04 03:48:51;;;;;;;14.43;7.32;;;9.50;99.90;;;;;;5039086;28;20406;-73
2024/02/04 03:51:18;;;;;;;16.65;8.60;;;9.50;99.90;;;;;;5041123;28;20029;-73
2024/02/04 03:53:44;;;;;;;14.38;7.82;;;9.50;99.90;;;;;;5043050;28;20044;-73
2024/02/04 03:56:10;;;;;;;18.13;7.25;;;9.50;99.90;;;;;;5043748;28;20041;-73
2024/02/04 03:58:36;;;;;;;19.77;8.00;;;9.50;99.90;;;;;;5044079;28;20095;-73
2024/02/04 04:01:01;;;;;;;17.75;6.45;;;9.50;99.90;;;;;;5041884;28;20399;-73
2024/02/04 04:03:27;;;;;;;14.30;6.50;;;9.50;99.90;;;;;;5042685;28;20033;-73
2024/02/04 04:05:55;;;;;;;20.67;6.18;;;9.50;99.90;;;;;;5041276;28;20029;-75
2024/02/04 04:08:21;;;;;;;19.08;6.65;;;9.40;99.90;;;;;;5039540;28;20076;-67
2024/02/04 04:10:49;;;;;;;17.27;7.20;;;9.40;99.90;;;;;;5039647;28;20553;-67
2024/02/04 04:13:14;;;;;;;11.95;5.60;;;9.40;99.90;;;;;;5039573;28;20048;-66
2024/02/04 04:15:44;;;;;;;13.70;5.35;;;9.40;99.90;;;;;;5034561;28;20375;-67
2024/02/04 04:18:13;;;;;;;14.27;5.95;;;9.40;99.90;;;;;;5041218;28;20410;-67
2024/02/04 04:20:39;;;;;;;19.63;6.50;;;9.30;99.90;;;;;;5040495;28;20029;-67
2024/02/04 04:23:05;;;;;;;13.13;5.82;;;9.30;99.90;;;;;;5042088;28;20037;-67
2024/02/04 04:25:35;;;;;;;14.95;6.05;;;9.30;99.90;;;;;;5042040;28;20120;-67
2024/02/04 04:28:00;;;;;;;17.52;6.25;;;9.30;99.90;;;;;;5037700;28;20035;-67
2024/02/04 04:30:26;;;;;;;19.38;6.63;;;9.20;99.90;;;;;;5044620;28;20382;-66
2024/02/04 04:32:56;;;;;;;20.13;6.43;;;9.20;99.90;;;;;;5036802;28;20036;-67
2024/02/04 04:35:21;;;;;;;13.77;5.97;;;9.20;99.90;;;;;;5036958;28;20033;-66
2024/02/04 04:37:47;;;;;;;20.65;5.93;;;9.20;99.90;;;;;;5041137;28;20083;-67
2024/02/04 04:40:13;;;;;;;16.00;5.82;;;9.10;99.90;;;;;;5041831;28;20040;-67
2024/02/04 04:42:38;;;;;;;14.43;6.22;;;9.10;99.90;;;;;;5035770;28;20108;-65
2024/02/04 04:45:10;;;;;;;18.35;6.78;;;9.10;99.90;;;;;;5043760;28;20567;-65
2024/02/04 04:47:36;;;;;;;16.83;6.20;;;9.10;99.90;;;;;;5038660;28;20246;-68
2024/02/04 04:50:02;;;;;;;17.83;6.20;;;9.10;99.90;;;;;;5042199;28;20049;-68
2024/02/04 04:52:30;;;;;;;15.25;6.47;;;9.10;99.90;;;;;;5041117;28;20044;-66
2024/02/04 04:54:58;;;;;;;20.15;6.28;;;9.00;99.90;;;;;;5042012;28;20099;-67
2024/02/04 04:57:23;;;;;;;10.88;5.65;;;9.00;99.90;;;;;;5041965;28;20033;-68
2024/02/04 04:59:51;;;;;;;16.52;5.47;;;9.00;99.90;;;;;;5042750;28;20040;-66
2024/02/04 05:02:17;;;;;;;13.50;5.50;;;9.00;99.90;;;;;;5040394;28;20033;-67
2024/02/04 05:04:44;;;;;;;21.38;6.50;;;9.00;99.90;;;;;;5042590;28;20200;-66
2024/02/04 05:07:13;;;;;;;17.50;6.00;;;9.00;99.90;;;;;;5039427;28;20399;-66
2024/02/04 05:09:38;;;;;;;16.30;6.43;;;8.90;99.90;;;;;;5039817;28;20033;-66
2024/02/04 05:12:06;;;;;;;17.23;6.15;;;8.90;99.90;;;;;;5022696;28;20056;-66
2024/02/04 05:14:34;;;;;;;16.65;6.85;;;9.00;99.90;;;;;;5040371;28;20075;-67
2024/02/04 05:17:00;;;;;;;;;;;8.90;99.90;;;;;;5044989;28;20219;-68
2024/02/04 05:19:25;;;;;;;22.15;5.93;;;8.90;99.90;;;;;;5039623;28;20433;-66
2024/02/04 05:21:51;;;;;;;15.05;6.38;;;8.90;99.90;;;;;;5039041;28;20063;-66
2024/02/04 05:24:18;;;;;;;11.38;5.50;;;8.80;99.90;;;;;;5041794;28;20096;-66
2024/02/04 05:26:44;;;;;;;15.82;6.40;;;8.90;99.90;;;;;;5041943;28;20515;-66
2024/02/04 05:29:09;;;;;;;17.10;6.35;;;8.80;99.90;;;;;;5044300;28;20065;-66
2024/02/04 05:31:43;;;;;;;19.02;6.55;;;8.90;99.90;;;;;;5043083;28;20541;-66
2024/02/04 05:34:09;;;;;;;17.45;6.65;;;8.90;99.90;;;;;;5041216;28;20112;-66
2024/02/04 05:36:35;;;;;;;20.45;6.85;;;8.90;99.90;;;;;;5045844;28;20104;-66
2024/02/04 05:39:14;;;;;;;15.27;7.03;;;8.90;99.90;;;;;;5046307;28;20116;-66
2024/02/04 05:41:43;;;;;;;16.27;7.63;;;8.90;99.90;;;;;;5045111;28;20128;-66
2024/02/04 05:44:11;;;;;;;19.55;7.07;;;8.90;99.90;;;;;;5045765;28;20151;-66
2024/02/04 05:46:37;;;;;;;14.93;6.82;;;8.90;99.90;;;;;;5046984;28;20040;-66
2024/02/04 05:49:03;;;;;;;21.10;8.23;;;8.90;99.90;;;;;;5045235;28;20099;-66
2024/02/04 05:51:31;;;;;;;19.92;7.63;;;8.90;99.90;;;;;;5045806;28;20463;-66
2024/02/04 05:53:58;;;;;;;17.02;7.40;;;9.00;99.90;;;;;;5045024;28;20036;-67
2024/02/04 05:56:24;;;;;;;16.13;7.55;;;8.90;99.90;;;;;;5042221;28;20040;-67
2024/02/04 05:58:52;;;;;;;17.38;7.28;;;8.90;99.90;;;;;;5039785;28;20540;-66
2024/02/04 06:01:17;;;;;;;18.50;8.82;;;8.90;99.90;;;;;;5042598;28;20032;-67
2024/02/04 06:03:45;;;;;;;15.20;7.43;;;8.90;99.90;;;;;;5043820;28;21299;-67
2024/02/04 06:06:20;;;;;;;;;;;8.90;99.90;;;;;;5045362;28;20017;-67
2024/02/04 06:08:48;;;;;;;14.85;6.85;;;8.90;99.90;;;;;;5045635;28;19916;-67
2024/02/04 06:11:17;;;;;;;17.38;7.18;;;8.90;99.90;;;;;;5042207;28;20079;-67
2024/02/04 06:13:44;;;;;;;8.70;5.20;;;8.90;99.90;;;;;;5042935;28;20114;-66
2024/02/04 06:16:13;;;;;;;9.77;5.22;;;8.90;99.90;;;;;;5043344;28;20033;-67
2024/02/04 06:18:43;;;;;;;14.48;4.88;;;8.90;99.90;;;;;;5047350;28;20538;-67
2024/02/04 06:21:11;;;;;;;8.82;4.55;;;8.90;99.90;;;;;;5045090;28;20183;-67
2024/02/04 06:23:39;;;;;;;14.27;5.07;;;8.90;99.90;;;;;;5044364;28;20479;-66
2024/02/04 06:26:07;;;;;;;18.23;4.97;;;8.90;99.90;;;;;;5043949;28;20187;-67
2024/02/04 06:28:35;;;;;;;11.82;4.32;;;8.90;99.90;;;;;;5043428;28;20386;-67
2024/02/04 06:31:00;;;;;;;13.68;4.38;;;8.90;99.90;;;;;;5040557;28;20033;-67
2024/02/04 06:33:26;;;;;;;14.50;4.85;;;9.00;99.90;;;;;;5043121;28;20510;-67
2024/02/04 06:35:56;;;;;;;8.23;3.60;;;9.00;99.90;;;;;;5040410;28;20041;-67
2024/02/04 06:38:24;;;;;;;12.73;4.88;;;9.00;99.90;;;;;;5038159;28;20059;-67
2024/02/04 06:40:50;;;;;;;14.23;4.40;;;9.00;99.90;;;;;;5040526;28;20025;-67
2024/02/04 06:43:15;;;;;;;11.48;3.97;;;9.00;99.90;;;;;;5041840;28;20146;-66
2024/02/04 06:45:45;;;;;;;11.02;3.92;;;9.00;99.90;;;;;;5041718;28;20029;-67
2024/02/04 06:48:12;;;;;;;14.63;3.92;;;9.00;99.90;;;;;;5044799;28;20025;-67
2024/02/04 06:50:40;;;;;;;9.13;3.40;;;9.00;99.90;;;;;;5044538;28;20063;-66
2024/02/04 06:53:08;;;;;;;7.70;3.10;;;9.00;99.90;;;;;;5037931;28;20391;-67
2024/02/04 06:55:33;;;;;;;10.13;3.50;;;8.90;99.90;;;;;;5044175;28;20506;-67
2024/02/04 06:58:04;;;;;;;15.63;4.78;;;9.00;99.90;;;;;;5040492;28;20057;-67
2024/02/04 07:00:32;;;;;;;8.45;2.67;;;8.90;99.90;;;;;;5037633;28;20018;-67
2024/02/04 07:03:00;;;;;;;;;;;9.00;99.90;;;;;;5043171;28;20037;-67
2024/02/04 07:05:25;;;;;;;6.70;2.97;;;9.10;99.90;;;;;;5041021;28;20356;-68
2024/02/04 07:07:52;;;;;;;8.27;2.03;;;8.90;99.90;;;;;;5043026;28;20127;-67
2024/02/04 07:10:18;;;;;;;9.90;2.88;;;8.90;99.90;;;;;;5041667;28;20132;-67
2024/02/04 07:12:44;;;;;;;9.85;2.65;;;8.90;99.90;;;;;;5020738;28;20135;-67
2024/02/04 07:15:10;;;;;;;7.20;2.60;;;8.90;99.90;;;;;;5042070;28;20196;-67
2024/02/04 07:17:42;;;;;;;6.70;2.17;;;8.90;99.90;;;;;;5038109;28;20063;-70
2024/02/04 07:20:11;;;;;;;13.20;2.10;;;9.00;99.90;;;;;;5037277;28;20046;-67
2024/02/04 07:22:37;;;;;;;9.52;2.72;;;8.90;99.90;;;;;;5041972;28;20033;-67
2024/02/04 07:25:03;;;;;;;7.65;2.85;;;8.90;99.90;;;;;;5041446;28;20041;-67
2024/02/04 07:27:29;;;;;;;6.75;2.55;;;8.90;99.90;;;;;;5036742;28;20548;-67
2024/02/04 07:29:54;;;;;;;10.05;3.03;;;8.90;99.90;;;;;;5042486;28;20459;-67
2024/02/04 07:32:20;;;;;;;8.90;2.50;;;8.90;99.90;;;;;;5035493;28;20030;-67
2024/02/04 07:34:46;;;;;;;8.35;2.40;;;8.90;99.90;;;;;;5038657;28;20036;-67
2024/02/04 07:37:15;;;;;;;10.90;2.50;;;8.90;99.90;;;;;;5041913;28;20033;-67
2024/02/04 07:39:40;;;;;;;11.80;2.80;;;9.00;99.90;;;;;;5040146;28;20028;-68
2024/02/04 07:42:06;;;;;;;10.73;2.65;;;9.00;99.90;;;;;;5041971;28;20379;-67
2024/02/04 07:44:31;;;;;;;10.90;3.47;;;9.00;99.90;;;;;;5037281;28;20049;-67
2024/02/04 07:46:57;;;;;;;8.93;2.88;;;9.00;99.90;;;;;;5023736;28;20495;-67
2024/02/04 07:49:22;;;;;;;4.65;2.72;;;9.00;99.90;;;;;;5038393;28;20047;-67
2024/02/04 07:51:48;;;;;;;7.53;2.83;;;9.00;99.90;;;;;;5039739;28;20506;-68
2024/02/04 07:54:14;;;;;;;9.77;2.40;;;9.10;99.90;;;;;;5042342;28;20047;-67
2024/02/04 07:56:41;;;;;;;8.20;2.67;;;9.00;99.90;;;;;;5037639;28;20502;-67
2024/02/04 07:59:09;;;;;;;10.02;2.45;;;9.10;99.90;;;;;;5043198;28;20083;-67
2024/02/04 08:01:35;;;;;;;10.80;2.55;;;9.10;99.90;;;;;;5039236;28;20464;-67
2024/02/04 08:04:02;;;;;;;5.30;2.10;;;9.10;99.90;;;;;;5041358;28;20049;-67
2024/02/04 08:06:27;;;;;;;10.15;2.72;;;9.10;99.90;;;;;;5037867;28;20021;-67
2024/02/04 08:08:55;;;;;;;10.25;2.38;;;9.20;99.90;;;;;;5041686;28;20577;-67
2024/02/04 08:11:25;;;;;;;12.10;1.77;;;9.20;99.90;;;;;;5037804;28;20041;-67
2024/02/04 08:13:53;;;;;;;7.82;1.90;;;9.20;99.90;;;;;;5042232;28;20446;-67
2024/02/04 08:16:21;;;;;;;10.55;1.92;;;9.30;99.90;;;;;;5023552;28;20562;-67
2024/02/04 08:18:47;;;;;;;8.70;2.33;;;9.30;99.90;;;;;;5042220;28;20059;-67
2024/02/04 08:21:12;;;;;;;8.40;1.95;;;9.30;99.90;;;;;;5038588;28;20483;-67
2024/02/04 08:23:39;;;;;;;3.40;1.65;;;9.30;99.90;;;;;;5036177;28;20448;-67
2024/02/04 08:26:05;;;;;;;8.98;1.75;;;9.40;99.90;;;;;;5040179;28;20484;-67
2024/02/04 08:28:33;;;;;;;9.00;1.40;;;9.40;99.90;;;;;;5037478;28;20037;-67
2024/02/04 08:30:59;;;;;;;2.92;1.33;;;9.40;99.90;;;;;;5035627;28;20037;-67
2024/02/04 08:33:24;;;;;;;3.92;1.58;;;9.50;99.90;;;;;;5039799;28;20031;-67
2024/02/04 08:35:52;;;;;;;5.10;1.65;;;9.50;99.90;;;;;;5039543;28;20037;-67
2024/02/04 08:38:18;;;;;;;14.63;1.88;;;9.50;99.90;;;;;;5036553;28;20041;-67
2024/02/04 08:40:44;;;;;;;7.47;1.65;;;9.50;99.90;;;;;;5044869;28;20041;-67
2024/02/04 08:43:09;;;;;;;4.18;1.30;;;9.60;99.90;;;;;;5037863;28;20032;-67
2024/02/04 08:45:35;;;;;;;5.60;1.20;;;9.60;99.90;;;;;;5021362;28;20033;-67
2024/02/04 08:48:00;;;;;;;5.63;1.55;;;9.60;99.90;;;;;;5040175;28;20076;-67
2024/02/04 08:50:26;;;;;;;7.68;1.88;;;9.60;99.90;;;;;;5037365;28;20051;-67
2024/02/04 08:52:51;;;;;;;7.40;1.33;;;9.60;99.90;;;;;;5034935;28;20406;-67
2024/02/04 08:55:17;;;;;;;10.00;1.80;;;9.60;99.90;;;;;;5038430;28;20041;-67
2024/02/04 08:57:42;;;;;;;14.90;1.80;;;9.60;99.90;;;;;;5044757;28;20028;-67
2024/02/04 09:00:11;;;;;;;7.32;1.63;;;9.60;99.90;;;;;;5041327;28;20429;-67
2024/02/04 09:02:37;;;;;;;9.93;1.63;;;9.60;99.90;;;;;;5042397;28;20052;-68
2024/02/04 09:05:03;;;;;;;8.55;1.52;;;9.60;99.90;;;;;;5039264;28;20430;-67
2024/02/04 09:07:28;;;;;;;14.93;1.70;;;9.60;99.90;;;;;;5043581;28;20060;-67
2024/02/04 09:09:54;;;;;;;13.40;1.92;;;9.60;99.90;;;;;;5042586;28;20032;-67
2024/02/04 09:12:20;;;;;;;11.60;1.10;;;9.60;99.90;;;;;;5055952;23;20490;-68
2024/02/04 09:14:45;;;;;;;7.57;1.50;;;9.60;99.90;;;;;;5036778;28;20034;-67
2024/02/04 09:17:13;;;;;;;5.88;1.42;;;9.60;99.90;;;;;;5036883;28;20112;-68
2024/02/04 09:19:41;;;;;;;16.05;2.72;;;9.60;99.90;;;;;;5037957;28;20037;-67
2024/02/04 09:22:08;;;;;;;8.40;2.15;;;9.50;99.90;;;;;;5037742;28;20033;-67
2024/02/04 09:24:34;;;;;;;7.80;1.70;;;9.50;99.90;;;;;;5039423;28;20159;-67
2024/02/04 09:27:00;;;;;;;5.72;1.10;;;9.50;99.90;;;;;;5048475;28;20033;-67
2024/02/04 09:29:28;;;;;;;7.05;1.27;;;9.50;99.90;;;;;;5041434;28;20049;-67
2024/02/04 09:31:53;;;;;;;;;;;9.50;99.90;;;;;;5036901;28;20029;-68
2024/02/04 09:34:21;;;;;;;9.38;1.73;;;9.50;99.90;;;;;;5043732;28;19913;-68
2024/02/04 09:36:47;;;;;;;15.38;1.92;;;9.50;99.90;;;;;;5041127;28;20040;-68
2024/02/04 09:39:13;;;;;;;11.80;1.58;;;9.50;99.90;;;;;;5037849;28;20026;-68
2024/02/04 09:41:38;;;;;;;14.60;1.80;;;9.50;99.90;;;;;;5039356;28;20049;-68
2024/02/04 09:44:06;;;;;;;13.43;1.90;;;9.50;99.90;;;;;;5042117;28;20036;-68
2024/02/04 09:46:31;;;;;;;8.75;1.90;;;9.50;99.90;;;;;;5042283;28;20116;-68
2024/02/04 09:49:02;;;;;;;9.48;1.67;;;9.50;99.90;;;;;;5043021;28;20167;-68
2024/02/04 09:51:30;;;;;;;12.88;1.70;;;9.50;99.90;;;;;;5037974;28;20021;-68
2024/02/04 09:54:02;;;;;;;10.30;1.40;;;9.50;99.90;;;;;;5041873;28;20029;-68
2024/02/04 09:56:29;;;;;;;10.60;1.90;;;9.50;99.90;;;;;;5040326;28;20029;-68
2024/02/04 09:58:59;;;;;;;10.73;1.25;;;9.50;99.90;;;;;;5038701;28;20049;-68
2024/02/04 10:01:28;;;;;;;12.18;1.77;;;9.50;99.90;;;;;;5047289;28;20714;-67
2024/02/04 10:03:56;;;;;;;8.82;1.85;;;9.50;99.90;;;;;;5040792;28;20376;-68
2024/02/04 10:06:22;;;;;;;;;;;9.50;99.90;;;;;;5040565;28;20530;-68
2024/02/04 10:08:49;;;;;;;9.05;1.50;;;9.50;99.90;;;;;;5038650;28;20011;-68
2024/02/04 10:11:17;;;;;;;16.17;1.83;;;9.50;99.90;;;;;;5040746;28;20032;-68
2024/02/04 10:13:49;;;;;;;;;;;9.50;99.90;;;;;;5040371;28;20032;-68
2024/02/04 10:16:18;;;;;;;10.32;1.40;;;9.50;99.90;;;;;;5045490;28;19920;-68
2024/02/04 10:18:50;;;;;;;9.68;1.50;;;9.50;99.90;;;;;;5025646;28;20059;-66
2024/02/04 10:21:19;;;;;;;14.77;2.05;;;9.50;99.90;;;;;;5040958;28;20047;-67
2024/02/04 10:23:48;;;;;;;8.10;1.67;;;9.60;99.90;;;;;;5043793;28;20855;-66
2024/02/04 10:26:13;;;;;;;9.45;1.60;;;9.50;99.90;;;;;;5043039;28;20041;-67
2024/02/04 10:28:44;;;;;;;11.90;1.90;;;9.50;99.90;;;;;;5037326;28;20048;-67
2024/02/04 10:31:10;;;;;;;14.15;1.63;;;9.50;99.90;;;;;;5042173;28;20032;-66
2024/02/04 10:33:36;;;;;;;12.43;1.40;;;9.50;99.90;;;;;;5043538;28;20052;-66
2024/02/04 10:36:03;;;;;;;12.80;2.22;;;9.50;99.90;;;;;;5039174;28;20034;-66
2024/02/04 10:38:31;;;;;;;14.15;2.00;;;9.50;99.90;;;;;;5044386;28;20578;-67
2024/02/04 10:41:01;;;;;;;12.85;1.70;;;9.50;99.90;;;;;;5034207;28;20037;-67
2024/02/04 10:43:36;;;;;;;11.13;1.98;;;9.60;99.90;;;;;;5041078;28;20152;-67
2024/02/04 10:46:10;;;;;;;14.60;2.35;;;9.60;99.90;;;;;;5038762;28;20478;-67
2024/02/04 10:48:41;;;;;;;11.10;1.77;;;9.60;99.90;;;;;;5040686;28;20041;-67
2024/02/04 10:51:14;;;;;;;15.73;2.03;;;9.70;99.90;;;;;;5040051;28;20044;-67
2024/02/04 10:53:42;;;;;;;6.78;1.83;;;9.70;99.90;;;;;;5028650;28;20040;-67
2024/02/04 10:56:13;;;;;;;8.18;1.77;;;9.70;99.90;;;;;;5041389;28;20079;-67
2024/02/04 10:58:42;;;;;;;12.38;2.10;;;9.80;99.90;;;;;;5042161;28;20047;-67
2024/02/04 11:01:13;;;;;;;16.05;2.35;;;9.80;99.90;;;;;;5040876;28;20071;-67
2024/02/04 11:03:42;;;;;;;9.73;2.20;;;9.80;99.90;;;;;;5046404;28;20024;-68
2024/02/04 11:06:09;;;;;;;11.18;1.73;;;9.80;99.90;;;;;;5040384;28;20017;-67
2024/02/04 11:08:38;;;;;;;10.57;1.77;;;9.80;99.90;;;;;;5044144;28;20037;-67
2024/02/04 11:11:06;;;;;;;14.68;2.38;;;9.80;99.90;;;;;;5035889;28;20541;-67
2024/02/04 11:13:35;;;;;;;;;;;9.80;99.90;;;;;;5044495;28;20037;-67
2024/02/04 11:16:07;;;;;;;16.10;2.40;;;9.80;99.90;;;;;;5047093;28;19940;-67
2024/02/04 11:18:49;;;;;;;11.30;2.08;;;9.80;99.90;;;;;;5039871;28;20021;-67
2024/02/04 11:21:41;;;;;;;16.55;2.80;;;9.90;99.90;;;;;;5040693;28;20029;-67
2024/02/04 11:24:27;;;;;;;9.50;1.67;;;9.90;99.90;;;;;;5043623;28;20434;-68
2024/02/04 11:26:53;;;;;;;7.72;1.70;;;10.00;99.90;;;;;;5040307;28;20033;-70
2024/02/04 11:29:19;;;;;;;15.00;2.08;;;10.00;99.90;;;;;;5038016;28;20042;-67
2024/02/04 11:31:46;;;;;;;3.55;1.23;;;10.10;99.90;;;;;;5045514;28;20075;-68
2024/02/04 11:34:13;;;;;;;11.95;1.85;;;10.10;99.90;;;;;;5042595;28;20029;-68
2024/02/04 11:36:44;;;;;;;8.50;1.70;;;10.20;99.90;;;;;;5042926;28;20099;-76
2024/02/04 11:39:17;;;;;;;12.15;2.13;;;10.20;99.90;;;;;;5041610;28;20071;-74
2024/02/04 11:41:50;;;;;;;5.35;1.70;;;10.20;99.90;;;;;;5037979;28;20120;-72
2024/02/04 11:59:48;;;;;;;9.50;2.00;;;10.40;99.90;;;;;;775801;22;21991;-67
2024/02/04 12:02:18;;;;;;;8.98;2.00;;;10.40;99.90;;;;;;5017168;28;20049;-65
2024/02/04 12:08:07;;;;;;;7.55;1.65;;;10.40;99.90;;;;;;5036190;23;20174;-65
2024/02/04 12:10:35;;;;;;;8.07;1.60;;;10.40;99.90;;;;;;5027273;28;20041;-65
2024/02/04 12:13:03;;;;;;;7.38;1.45;;;10.40;99.90;;;;;;5005999;28;20109;-70
2024/02/04 12:15:30;;;;;;;10.80;2.40;;;10.40;99.90;;;;;;5026774;28;20033;-69
2024/02/04 12:18:04;;;;;;;8.52;1.42;;;10.40;99.90;;;;;;5011579;28;20685;-69
2024/02/04 12:20:30;;;;;;;10.98;1.42;;;10.40;99.90;;;;;;5023264;28;20524;-68
2024/02/04 12:22:56;;;;;;;8.60;1.88;;;10.40;99.90;;;;;;5020775;28;20065;-69
2024/02/04 12:25:21;;;;;;;9.38;1.23;;;10.40;99.90;;;;;;5024900;28;20155;-69
2024/02/04 12:27:48;;;;;;;9.65;1.95;;;10.40;99.90;;;;;;5052335;22;20137;-71
2024/02/04 12:30:15;;;;;;;9.85;1.55;;;10.40;99.90;;;;;;5039082;28;20036;-69
2024/02/04 12:32:40;;;;;;;9.93;1.70;;;10.40;99.90;;;;;;5043899;28;20021;-69
2024/02/04 12:35:07;;;;;;;11.63;2.03;;;10.40;99.90;;;;;;5045550;28;20051;-69
2024/02/04 12:37:34;;;;;;;4.93;0.88;;;10.40;99.90;;;;;;5027024;28;20124;-70
2024/02/04 12:39:59;;;;;;;9.23;1.63;;;10.40;99.90;;;;;;5026594;28;20041;-69
2024/02/04 12:42:25;;;;;;;4.68;1.13;;;10.30;99.90;;;;;;5027714;28;20036;-70
2024/02/04 12:44:52;;;;;;;9.50;1.63;;;10.30;99.90;;;;;;5029533;28;20074;-70
2024/02/04 12:47:20;;;;;;;6.88;1.25;;;10.30;99.90;;;;;;5026295;28;20048;-69
2024/02/04 12:49:46;;;;;;;3.53;1.10;;;10.40;99.90;;;;;;5008871;28;20056;-70
2024/02/04 12:55:59;;;;;;;9.95;1.45;;;10.30;99.90;;;;;;1885077;22;20056;-69
2024/02/04 12:58:26;;;;;;;12.10;1.20;;;10.30;99.90;;;;;;5098306;28;20020;-70
2024/02/04 13:01:01;;;;;;;14.10;1.30;;;10.30;99.90;;;;;;5096796;28;20033;-71
2024/02/04 13:03:26;;;;;;;5.57;1.38;;;10.20;99.90;;;;;;5081542;28;20066;-69
2024/02/04 13:05:58;;;;;;;7.70;1.75;;;10.30;99.90;;;;;;5097543;28;20039;-68
2024/02/04 13:08:23;;;;;;;8.73;1.20;;;10.30;99.90;;;;;;5093189;28;20032;-69
2024/02/04 13:10:57;;;;;;;13.98;1.65;;;10.30;99.90;;;;;;5093841;28;20028;-69
2024/02/04 13:13:26;;;;;;;6.50;1.42;;;10.20;99.90;;;;;;5098236;28;20365;-68
2024/02/04 13:15:52;;;;;;;6.70;1.13;;;10.30;99.90;;;;;;5099315;28;20144;-69
2024/02/04 13:18:18;;;;;;;8.15;1.20;;;10.30;99.90;;;;;;5099128;28;20091;-68